Terminal Aerodrome Forecast
Issued by NWS

Home | Current Version | Previous Version | Text Only | Print | Product List | Glossary On
Versions: 1 2 3 4 5 6 7 8 9 10 11 12 13 14
153
FTUS45 KPSR 281326 AAB
TAFBLH
TAF AMD
KBLH 281326Z 2813/2912 17015G22KT P6SM FEW150 SCT250
     FM281600 18012KT P6SM FEW150 SCT250
      TEMPO 2820/2824 19012G20KT=

USA.gov is the U.S. government's official web portal to all federal, state and local government web resources and services.